MDST/STI METAR and TAF weather

Enter ICAO airport designator
Station Type Date Time Source
MDST METAR 2019/12/08 01:00 UTC NOAA

MDST 080100Z 18004KT 9999 FEW018CB SCT020 SCT300 25/24 Q1016 CB/NE/S/SW/N


Station Type Date Time Source
MDST Decoded METAR 2019/12/08 01:00 UTC NOAA

Santiago, Dominican Republic (MDST) 19-27N 070-42W
Dec 07, 2019 - 08:00 PM EST / 2019.12.08 0100 UTC
Wind: from the S (180 degrees) at 5 MPH (4 KT):0
Visibility: greater than 7 mile(s):0
Sky conditions: partly cloudy
Weather: Cumulonimbus clouds observed
Temperature: 77 F (25 C)
Dew Point: 75 F (24 C)
Relative Humidity: 94%
Pressure (altimeter): 30.00 in. Hg (1016 hPa)
ob: MDST 080100Z 18004KT 9999 FEW018CB SCT020 SCT300 25/24 Q1016 CB/NE/S/SW/N
cycle: 1

Station Type Date Time Source
MDST TAF 2019/12/07 18:14 UTC NOAA

TAF MDST 071600Z 0718/0818 11008KT 9999 SCT024 PROB30 0718/0800 5000 TSRA FEW014CB BKN016
BECMG 0720/0722 02010KT

Example: see airport list